Time;durP1;ratioP1;P1;durP2;ratioP2;P2;SDS_P1;SDS_P2;PMS_P1;PMS_P2;Temp;Humidity;BMP_temperature;BMP_pressure;BME280_temperature;BME280_humidity;BME280_pressure;Samples;Min_cycle;Max_cycle;Signal;HPM_P1;HPM_P2
2021/11/30 00:00:00;;;;;;;8.40;1.80;;;;;;;;;;4418969;32;20291;-60
2021/11/30 00:02:25;;;;;;;4.83;1.73;;;;;;;;;;4418027;32;20267;-59
2021/11/30 00:04:51;;;;;;;3.13;1.27;;;;;;;;;;4418744;32;20221;-60
2021/11/30 00:07:17;;;;;;;3.10;1.50;;;;;;;;;;4416773;32;20776;-59
2021/11/30 00:12:20;;;;;;;4.60;1.60;;;;;;;;;;4410877;32;20262;-60
2021/11/30 00:14:48;;;;;;;4.50;1.57;;;;;;;;;;4403151;32;20216;-59
2021/11/30 00:17:15;;;;;;;3.70;2.07;;;;;;;;;;4402849;32;20221;-59
2021/11/30 00:19:42;;;;;;;3.70;2.30;;;;;;;;;;4406905;32;20338;-61
2021/11/30 00:22:09;;;;;;;7.60;4.33;;;;;;;;;;4402914;32;20261;-60
2021/11/30 00:24:35;;;;;;;22.47;9.30;;;;;;;;;;4402788;32;20353;-60
2021/11/30 00:27:01;;;;;;;26.63;10.70;;;;;;;;;;4403193;32;20206;-59
2021/11/30 00:29:27;;;;;;;9.87;6.40;;;;;;;;;;4404365;32;20251;-59
2021/11/30 00:31:54;;;;;;;9.53;5.30;;;;;;;;;;4406270;32;20284;-61
2021/11/30 00:34:20;;;;;;;7.47;4.07;;;;;;;;;;4404952;32;20259;-60
2021/11/30 00:36:45;;;;;;;5.40;3.67;;;;;;;;;;4405947;32;20205;-60
2021/11/30 00:39:11;;;;;;;6.40;3.13;;;;;;;;;;4405239;32;20632;-60
2021/11/30 00:41:37;;;;;;;15.07;2.97;;;;;;;;;;4405851;32;20198;-60
2021/11/30 00:44:03;;;;;;;5.40;2.43;;;;;;;;;;4406266;32;20331;-61
2021/11/30 00:46:37;;;;;;;7.70;2.53;;;;;;;;;;4406224;32;20201;-62
2021/11/30 00:49:05;;;;;;;4.90;2.33;;;;;;;;;;4406336;32;20292;-59
2021/11/30 00:51:33;;;;;;;3.13;2.37;;;;;;;;;;4406140;32;20226;-61
2021/11/30 00:53:59;;;;;;;4.23;2.50;;;;;;;;;;4406223;32;20221;-59
2021/11/30 00:56:25;;;;;;;9.40;3.47;;;;;;;;;;4404416;32;20248;-59
2021/11/30 00:58:50;;;;;;;8.03;3.10;;;;;;;;;;4405830;32;20640;-61
2021/11/30 01:01:16;;;;;;;4.87;2.00;;;;;;;;;;4407056;32;20282;-60
2021/11/30 01:03:42;;;;;;;5.07;2.70;;;;;;;;;;4419834;32;20317;-60
2021/11/30 01:06:08;;;;;;;6.93;4.13;;;;;;;;;;4420739;32;20330;-59
2021/11/30 01:08:34;;;;;;;12.77;5.23;;;;;;;;;;4420544;32;20304;-60
2021/11/30 01:11:00;;;;;;;14.90;6.80;;;;;;;;;;4420889;32;20280;-60
2021/11/30 01:13:25;;;;;;;18.57;10.50;;;;;;;;;;4420539;32;20229;-60
2021/11/30 01:15:51;;;;;;;18.60;10.07;;;;;;;;;;4416857;32;20552;-60
2021/11/30 01:18:17;;;;;;;15.43;8.63;;;;;;;;;;4413191;32;20221;-60
2021/11/30 01:20:43;;;;;;;20.33;7.67;;;;;;;;;;4420042;32;20302;-60
2021/11/30 01:23:09;;;;;;;13.97;4.97;;;;;;;;;;4419271;32;20229;-59
2021/11/30 01:25:35;;;;;;;10.50;5.17;;;;;;;;;;4421178;32;20354;-61
2021/11/30 01:28:01;;;;;;;13.30;7.07;;;;;;;;;;4420591;32;20221;-60
2021/11/30 01:30:27;;;;;;;10.23;5.27;;;;;;;;;;4420585;32;20738;-60
2021/11/30 01:32:52;;;;;;;12.53;7.03;;;;;;;;;;4420487;32;20284;-61
2021/11/30 01:35:19;;;;;;;17.47;8.40;;;;;;;;;;4420507;32;20296;-60
2021/11/30 01:37:46;;;;;;;17.37;8.80;;;;;;;;;;4420248;32;20608;-60
2021/11/30 01:40:15;;;;;;;21.80;10.03;;;;;;;;;;4419931;32;20206;-60
2021/11/30 01:42:46;;;;;;;12.33;6.67;;;;;;;;;;4419951;32;20223;-60
2021/11/30 01:45:21;;;;;;;9.70;4.37;;;;;;;;;;4419163;32;20247;-59
2021/11/30 01:50:30;;;;;;;8.83;2.80;;;;;;;;;;4420186;32;20314;-61
2021/11/30 01:52:55;;;;;;;4.87;3.03;;;;;;;;;;4419963;32;20599;-60
2021/11/30 01:55:21;;;;;;;5.57;2.27;;;;;;;;;;4420312;32;20325;-60
2021/11/30 01:57:49;;;;;;;6.63;3.00;;;;;;;;;;4420014;32;20276;-61
2021/11/30 02:00:16;;;;;;;4.27;2.30;;;;;;;;;;4419715;32;20600;-60
2021/11/30 02:02:42;;;;;;;2.47;1.90;;;;;;;;;;4418798;32;20618;-60
2021/11/30 02:05:09;;;;;;;6.40;2.33;;;;;;;;;;4419658;32;20259;-60
2021/11/30 02:07:36;;;;;;;3.37;2.03;;;;;;;;;;4419657;32;20408;-60
2021/11/30 02:10:06;;;;;;;3.93;1.77;;;;;;;;;;4419734;32;20209;-60
2021/11/30 02:12:32;;;;;;;6.90;1.90;;;;;;;;;;4419743;32;20234;-60
2021/11/30 02:14:57;;;;;;;2.07;1.63;;;;;;;;;;4419775;32;20287;-61
2021/11/30 02:17:23;;;;;;;1.97;1.23;;;;;;;;;;4418664;32;20210;-61
2021/11/30 02:19:55;;;;;;;8.10;1.73;;;;;;;;;;4420160;32;20239;-60
2021/11/30 02:22:21;;;;;;;4.60;2.43;;;;;;;;;;4419944;32;20240;-60
2021/11/30 02:24:46;;;;;;;4.43;2.63;;;;;;;;;;4420467;32;20299;-60
2021/11/30 02:27:12;;;;;;;5.00;2.33;;;;;;;;;;4419779;32;20971;-59
2021/11/30 02:29:38;;;;;;;1.43;1.20;;;;;;;;;;4420234;32;20216;-61
2021/11/30 02:32:04;;;;;;;5.37;1.30;;;;;;;;;;4414754;32;20213;-60
2021/11/30 02:34:30;;;;;;;1.43;1.30;;;;;;;;;;4419214;32;20266;-59
2021/11/30 02:37:03;;;;;;;2.10;1.30;;;;;;;;;;4419728;32;20268;-60
2021/11/30 02:39:29;;;;;;;2.50;1.57;;;;;;;;;;4415536;32;20328;-59
2021/11/30 02:41:56;;;;;;;3.53;1.90;;;;;;;;;;4404939;32;20623;-60
2021/11/30 02:44:24;;;;;;;1.23;1.10;;;;;;;;;;4404976;32;20251;-59
2021/11/30 02:46:56;;;;;;;2.50;1.80;;;;;;;;;;4405128;32;20562;-60
2021/11/30 02:49:28;;;;;;;1.80;1.40;;;;;;;;;;4418126;32;20253;-59
2021/11/30 02:52:07;;;;;;;2.67;1.83;;;;;;;;;;4420198;32;20248;-60
2021/11/30 02:54:35;;;;;;;1.60;1.40;;;;;;;;;;4418723;32;20299;-60
2021/11/30 02:57:03;;;;;;;2.20;1.33;;;;;;;;;;4419581;32;20613;-60
2021/11/30 02:59:31;;;;;;;2.27;1.70;;;;;;;;;;4419661;32;20240;-60
2021/11/30 03:02:02;;;;;;;2.53;1.57;;;;;;;;;;4419283;32;20225;-60
2021/11/30 03:04:28;;;;;;;1.60;1.40;;;;;;;;;;4419009;32;20254;-60
2021/11/30 03:06:55;;;;;;;1.17;1.00;;;;;;;;;;4419159;32;20197;-60
2021/11/30 03:09:21;;;;;;;2.00;1.30;;;;;;;;;;4419144;32;20257;-59
2021/11/30 03:11:47;;;;;;;1.00;1.00;;;;;;;;;;4419288;32;20193;-60
2021/11/30 03:14:13;;;;;;;1.67;1.03;;;;;;;;;;4419459;32;20308;-60
2021/11/30 03:16:39;;;;;;;1.47;1.30;;;;;;;;;;4419127;32;20566;-60
2021/11/30 03:19:06;;;;;;;3.43;1.67;;;;;;;;;;4419375;32;20239;-60
2021/11/30 03:21:33;;;;;;;1.53;1.43;;;;;;;;;;4418886;32;20228;-60
2021/11/30 03:23:58;;;;;;;0.93;0.93;;;;;;;;;;4419484;32;20228;-60
2021/11/30 03:26:24;;;;;;;2.00;1.20;;;;;;;;;;4419017;32;20592;-60
2021/11/30 03:28:49;;;;;;;1.17;1.07;;;;;;;;;;4418975;32;20317;-60
2021/11/30 03:31:46;;;;;;;1.30;1.20;;;;;;;;;;4418461;32;20249;-60
2021/11/30 03:34:18;;;;;;;1.70;1.00;;;;;;;;;;4419054;32;20747;-60
2021/11/30 03:36:47;;;;;;;2.60;1.27;;;;;;;;;;4418086;32;20191;-60
2021/11/30 03:39:16;;;;;;;1.47;1.10;;;;;;;;;;4418029;32;20337;-60
2021/11/30 03:41:43;;;;;;;2.13;1.60;;;;;;;;;;4417755;32;20227;-59
2021/11/30 03:44:09;;;;;;;4.13;1.30;;;;;;;;;;4418882;32;20221;-60
2021/11/30 03:46:35;;;;;;;1.57;1.33;;;;;;;;;;4418461;32;20194;-59
2021/11/30 03:49:03;;;;;;;1.27;1.17;;;;;;;;;;4419291;32;20596;-59
2021/11/30 03:51:28;;;;;;;1.10;1.00;;;;;;;;;;4418329;32;20262;-59
2021/11/30 03:53:54;;;;;;;1.57;1.10;;;;;;;;;;4417475;32;20670;-59
2021/11/30 03:56:19;;;;;;;1.27;1.17;;;;;;;;;;4418409;32;20296;-59
2021/11/30 03:58:45;;;;;;;1.97;1.47;;;;;;;;;;4417493;32;20222;-59
2021/11/30 04:01:11;;;;;;;1.20;1.10;;;;;;;;;;4418824;32;20377;-59
2021/11/30 04:03:38;;;;;;;1.27;1.17;;;;;;;;;;4418259;32;20661;-59
2021/11/30 04:06:04;;;;;;;1.27;1.17;;;;;;;;;;4418919;32;20216;-60
2021/11/30 04:08:30;;;;;;;1.30;1.20;;;;;;;;;;4418477;32;20225;-60
2021/11/30 04:10:55;;;;;;;1.20;1.10;;;;;;;;;;4418445;32;20302;-60
2021/11/30 04:13:21;;;;;;;1.30;1.20;;;;;;;;;;4418344;32;20228;-61
2021/11/30 04:15:46;;;;;;;1.27;1.17;;;;;;;;;;4418659;32;20257;-60
2021/11/30 04:18:12;;;;;;;1.47;1.20;;;;;;;;;;4417153;32;20485;-60
2021/11/30 04:20:38;;;;;;;2.07;1.40;;;;;;;;;;4418854;32;20705;-62
2021/11/30 04:23:04;;;;;;;1.43;1.00;;;;;;;;;;4418934;32;20225;-61
2021/11/30 04:25:30;;;;;;;1.87;1.50;;;;;;;;;;4418375;32;20357;-61
2021/11/30 04:27:55;;;;;;;2.90;1.60;;;;;;;;;;4418197;32;20290;-62
2021/11/30 04:30:21;;;;;;;5.53;3.20;;;;;;;;;;4418081;32;20344;-62
2021/11/30 04:32:47;;;;;;;6.60;3.20;;;;;;;;;;4418514;32;20205;-61
2021/11/30 04:35:13;;;;;;;4.27;3.10;;;;;;;;;;4416742;32;20315;-61
2021/11/30 04:37:38;;;;;;;7.13;3.37;;;;;;;;;;4417993;32;20197;-62
2021/11/30 04:40:09;;;;;;;3.90;2.10;;;;;;;;;;4407447;32;20342;-62
2021/11/30 04:42:35;;;;;;;7.03;3.20;;;;;;;;;;4401677;32;20241;-61
2021/11/30 04:45:10;;;;;;;5.90;3.13;;;;;;;;;;4402916;32;20725;-61
2021/11/30 04:47:38;;;;;;;3.33;2.60;;;;;;;;;;4402542;32;20205;-60
2021/11/30 04:50:10;;;;;;;2.40;2.20;;;;;;;;;;4403025;32;20506;-61
2021/11/30 04:52:38;;;;;;;2.47;1.90;;;;;;;;;;4401556;32;20263;-62
2021/11/30 04:55:04;;;;;;;1.90;1.70;;;;;;;;;;4401794;32;20263;-61
2021/11/30 04:57:29;;;;;;;3.33;2.00;;;;;;;;;;4402498;32;20230;-61
2021/11/30 04:59:55;;;;;;;2.57;1.63;;;;;;;;;;4402837;32;20300;-61
2021/11/30 05:02:21;;;;;;;2.53;1.70;;;;;;;;;;4410982;32;20212;-61
2021/11/30 05:04:47;;;;;;;3.27;2.57;;;;;;;;;;4418484;32;20279;-60
2021/11/30 05:07:14;;;;;;;1.97;1.80;;;;;;;;;;4417808;32;20272;-63
2021/11/30 05:09:40;;;;;;;3.20;2.23;;;;;;;;;;4418020;32;20217;-61
2021/11/30 05:12:06;;;;;;;3.33;2.40;;;;;;;;;;4417936;32;20553;-60
2021/11/30 05:14:31;;;;;;;4.30;3.07;;;;;;;;;;4416358;32;20291;-60
2021/11/30 05:16:57;;;;;;;5.17;2.40;;;;;;;;;;4419633;32;20297;-61
2021/11/30 05:19:22;;;;;;;3.53;2.50;;;;;;;;;;4420848;32;20296;-61
2021/11/30 05:21:48;;;;;;;6.00;3.60;;;;;;;;;;4420503;32;20192;-62
2021/11/30 05:24:15;;;;;;;6.70;3.20;;;;;;;;;;4420475;32;20657;-60
2021/11/30 05:26:41;;;;;;;7.30;4.63;;;;;;;;;;4419056;32;20286;-60
2021/11/30 05:29:07;;;;;;;4.70;3.30;;;;;;;;;;4420687;32;20225;-59
2021/11/30 05:31:33;;;;;;;7.13;4.17;;;;;;;;;;4415869;32;20378;-60
2021/11/30 05:33:59;;;;;;;5.90;3.63;;;;;;;;;;4405579;32;20244;-59
2021/11/30 05:36:25;;;;;;;3.57;2.37;;;;;;;;;;4403607;32;20285;-60
2021/11/30 05:38:51;;;;;;;3.70;2.63;;;;;;;;;;4407752;32;20237;-61
2021/11/30 05:41:17;;;;;;;2.97;2.43;;;;;;;;;;4418986;32;20380;-60
2021/11/30 05:43:42;;;;;;;4.70;2.63;;;;;;;;;;4420367;32;20297;-60
2021/11/30 05:46:08;;;;;;;6.20;3.20;;;;;;;;;;4420318;32;20495;-60
2021/11/30 05:48:34;;;;;;;3.60;2.60;;;;;;;;;;4418821;32;20307;-60
2021/11/30 05:51:00;;;;;;;4.90;3.43;;;;;;;;;;4420509;32;20209;-61
2021/11/30 05:53:26;;;;;;;3.53;2.93;;;;;;;;;;4420034;32;20248;-60
2021/11/30 05:55:56;;;;;;;2.80;2.10;;;;;;;;;;4420379;32;20285;-61
2021/11/30 05:58:22;;;;;;;4.30;2.87;;;;;;;;;;4418783;32;20233;-59
2021/11/30 06:00:48;;;;;;;3.30;2.73;;;;;;;;;;4419869;32;20388;-61
2021/11/30 06:03:35;;;;;;;2.80;2.20;;;;;;;;;;4419450;32;20297;-60
2021/11/30 06:06:01;;;;;;;6.90;3.73;;;;;;;;;;4419494;32;20199;-59
2021/11/30 06:08:26;;;;;;;3.83;3.03;;;;;;;;;;4416638;32;20237;-59
2021/11/30 06:10:51;;;;;;;4.13;3.53;;;;;;;;;;4419232;32;20429;-60
2021/11/30 06:13:17;;;;;;;4.60;3.23;;;;;;;;;;4418345;32;20213;-61
2021/11/30 06:15:43;;;;;;;3.30;2.90;;;;;;;;;;4419437;32;20283;-60
2021/11/30 06:18:08;;;;;;;13.83;7.73;;;;;;;;;;4418482;32;20248;-60
2021/11/30 06:20:35;;;;;;;3.93;3.33;;;;;;;;;;4419570;32;20263;-61
2021/11/30 06:23:01;;;;;;;5.40;3.63;;;;;;;;;;4419799;32;20649;-61
2021/11/30 06:25:27;;;;;;;7.93;5.13;;;;;;;;;;4420493;32;20293;-59
2021/11/30 06:27:53;;;;;;;10.70;5.77;;;;;;;;;;4414923;32;20307;-60
2021/11/30 06:30:19;;;;;;;7.70;4.60;;;;;;;;;;4404949;32;20303;-61
2021/11/30 06:32:45;;;;;;;13.63;6.07;;;;;;;;;;4404632;32;20206;-61
2021/11/30 06:35:10;;;;;;;22.83;15.67;;;;;;;;;;4404965;32;20334;-62
2021/11/30 06:37:36;;;;;;;9.77;8.63;;;;;;;;;;4402931;32;20222;-60
2021/11/30 06:40:02;;;;;;;8.13;4.87;;;;;;;;;;4404436;32;20724;-59
2021/11/30 06:42:28;;;;;;;4.67;3.57;;;;;;;;;;4404274;32;20271;-60
2021/11/30 06:44:53;;;;;;;7.67;5.17;;;;;;;;;;4404524;32;20677;-60
2021/11/30 06:47:19;;;;;;;8.10;4.97;;;;;;;;;;4402027;32;20897;-61
2021/11/30 06:49:45;;;;;;;9.07;5.37;;;;;;;;;;4403616;32;20310;-60
2021/11/30 06:52:11;;;;;;;9.13;6.50;;;;;;;;;;4404010;32;20206;-60
2021/11/30 06:54:42;;;;;;;4.33;3.83;;;;;;;;;;4404365;32;20221;-60
2021/11/30 06:57:08;;;;;;;4.97;4.40;;;;;;;;;;4404248;32;20268;-61
2021/11/30 06:59:34;;;;;;;4.50;3.53;;;;;;;;;;4403478;32;20839;-59
2021/11/30 07:01:59;;;;;;;5.77;4.57;;;;;;;;;;4410179;32;20689;-61
2021/11/30 07:04:27;;;;;;;10.30;6.40;;;;;;;;;;4417089;32;20225;-61
2021/11/30 07:12:24;;;;;;;7.63;5.47;;;;;;;;;;4417792;32;20794;-60
2021/11/30 07:14:50;;;;;;;6.97;4.67;;;;;;;;;;4418990;32;20256;-59
2021/11/30 07:17:16;;;;;;;7.57;5.13;;;;;;;;;;4418362;32;20193;-60
2021/11/30 07:19:42;;;;;;;5.80;3.63;;;;;;;;;;4418815;32;20568;-60
2021/11/30 07:22:07;;;;;;;8.77;3.90;;;;;;;;;;4418633;32;20205;-60
2021/11/30 07:24:33;;;;;;;7.10;4.70;;;;;;;;;;4417984;32;20342;-60
2021/11/30 07:26:58;;;;;;;5.37;3.90;;;;;;;;;;4418942;32;20197;-59
2021/11/30 07:29:24;;;;;;;5.67;3.90;;;;;;;;;;4404288;32;20535;-59
2021/11/30 07:31:50;;;;;;;5.17;4.23;;;;;;;;;;4403196;32;20658;-60
2021/11/30 07:34:16;;;;;;;6.73;5.37;;;;;;;;;;4402265;32;20666;-60
2021/11/30 07:36:42;;;;;;;7.20;5.37;;;;;;;;;;4401808;32;20218;-60
2021/11/30 07:39:08;;;;;;;12.63;8.47;;;;;;;;;;4406804;32;20204;-59
2021/11/30 07:41:35;;;;;;;10.00;6.87;;;;;;;;;;4416926;32;20261;-60
2021/11/30 07:44:02;;;;;;;11.40;6.43;;;;;;;;;;4418884;32;20277;-62
2021/11/30 07:46:27;;;;;;;8.30;6.37;;;;;;;;;;4418846;32;20223;-60
2021/11/30 07:48:53;;;;;;;9.63;7.43;;;;;;;;;;4418158;32;20677;-61
2021/11/30 07:51:18;;;;;;;12.00;6.20;;;;;;;;;;4418561;32;20630;-61
2021/11/30 07:53:45;;;;;;;7.50;4.60;;;;;;;;;;4418524;32;20225;-60
2021/11/30 07:56:11;;;;;;;9.93;4.83;;;;;;;;;;4416728;32;20213;-61
2021/11/30 07:58:36;;;;;;;5.80;4.13;;;;;;;;;;4416407;32;20270;-61
2021/11/30 08:01:03;;;;;;;7.27;4.93;;;;;;;;;;4418345;32;20265;-61
2021/11/30 08:03:28;;;;;;;19.43;6.17;;;;;;;;;;4418527;32;20217;-61
2021/11/30 08:05:54;;;;;;;21.03;9.30;;;;;;;;;;4418443;32;20264;-61
2021/11/30 08:08:20;;;;;;;17.77;9.83;;;;;;;;;;4418384;32;20224;-61
2021/11/30 08:10:46;;;;;;;18.53;9.73;;;;;;;;;;4418587;32;20264;-61
2021/11/30 08:13:11;;;;;;;10.83;6.40;;;;;;;;;;4418798;32;20214;-60
2021/11/30 08:15:37;;;;;;;13.10;8.13;;;;;;;;;;4418533;32;20371;-61
2021/11/30 08:18:03;;;;;;;9.80;5.90;;;;;;;;;;4417504;32;20708;-60
2021/11/30 08:20:30;;;;;;;8.03;6.13;;;;;;;;;;4411717;32;20694;-60
2021/11/30 08:22:56;;;;;;;9.70;7.33;;;;;;;;;;4402075;32;20347;-60
2021/11/30 08:25:22;;;;;;;9.27;7.17;;;;;;;;;;4415737;32;20285;-61
2021/11/30 08:27:49;;;;;;;10.33;6.57;;;;;;;;;;4418751;32;20278;-60
2021/11/30 08:30:15;;;;;;;8.57;6.03;;;;;;;;;;4417130;32;20217;-61
2021/11/30 08:32:40;;;;;;;10.77;6.13;;;;;;;;;;4416577;32;20649;-60
2021/11/30 08:35:07;;;;;;;7.67;4.60;;;;;;;;;;4418116;32;20669;-59
2021/11/30 08:37:32;;;;;;;9.53;5.67;;;;;;;;;;4418220;32;20263;-60
2021/11/30 08:39:58;;;;;;;10.53;5.97;;;;;;;;;;4406986;32;20441;-60
2021/11/30 08:42:24;;;;;;;8.97;6.07;;;;;;;;;;4402609;32;20481;-59
2021/11/30 08:44:51;;;;;;;9.10;6.37;;;;;;;;;;4403620;32;20381;-60
2021/11/30 08:47:20;;;;;;;10.80;6.57;;;;;;;;;;4401864;32;20669;-61
2021/11/30 08:49:46;;;;;;;11.07;7.07;;;;;;;;;;4402777;32;20245;-59
2021/11/30 08:52:16;;;;;;;9.80;6.73;;;;;;;;;;4406005;32;20189;-59
2021/11/30 08:54:42;;;;;;;14.63;6.20;;;;;;;;;;4406165;32;20225;-60
2021/11/30 08:57:08;;;;;;;8.33;5.73;;;;;;;;;;4405857;32;20277;-59
2021/11/30 08:59:34;;;;;;;18.60;6.13;;;;;;;;;;4404732;32;20377;-60
2021/11/30 09:02:00;;;;;;;10.33;5.90;;;;;;;;;;4412626;32;20284;-60
2021/11/30 09:04:26;;;;;;;6.07;4.10;;;;;;;;;;4421199;32;20222;-61
2021/11/30 09:06:52;;;;;;;5.57;3.83;;;;;;;;;;4419988;32;20228;-60
2021/11/30 09:09:18;;;;;;;6.47;4.57;;;;;;;;;;4421022;32;20296;-60
2021/11/30 09:11:44;;;;;;;6.23;4.63;;;;;;;;;;4421089;32;20599;-60
2021/11/30 09:14:10;;;;;;;12.30;6.87;;;;;;;;;;4421339;32;20339;-60
2021/11/30 09:16:36;;;;;;;10.17;6.27;;;;;;;;;;4419191;32;20232;-60
2021/11/30 09:19:03;;;;;;;4.57;2.93;;;;;;;;;;4421484;32;20706;-59
2021/11/30 09:21:28;;;;;;;6.40;4.60;;;;;;;;;;4420705;32;20668;-60
2021/11/30 09:23:56;;;;;;;12.73;8.03;;;;;;;;;;4420983;32;20300;-60
2021/11/30 09:26:22;;;;;;;12.37;6.27;;;;;;;;;;4420802;32;20204;-60
2021/11/30 09:28:47;;;;;;;14.37;8.67;;;;;;;;;;4420684;32;20285;-59
2021/11/30 09:31:14;;;;;;;20.97;10.50;;;;;;;;;;4419371;32;20475;-60
2021/11/30 09:33:40;;;;;;;20.10;10.00;;;;;;;;;;4419898;32;20626;-59
2021/11/30 09:36:07;;;;;;;13.30;8.47;;;;;;;;;;4420115;32;20685;-60
2021/11/30 09:38:33;;;;;;;10.73;6.47;;;;;;;;;;4419649;32;20365;-60
2021/11/30 09:41:01;;;;;;;6.60;3.77;;;;;;;;;;4420327;32;20594;-60
2021/11/30 09:43:29;;;;;;;4.70;3.37;;;;;;;;;;4419837;32;20423;-59
2021/11/30 09:45:56;;;;;;;4.50;4.10;;;;;;;;;;4419385;32;20248;-61
2021/11/30 09:48:22;;;;;;;5.03;3.70;;;;;;;;;;4419959;32;20243;-60
2021/11/30 09:50:48;;;;;;;6.70;5.33;;;;;;;;;;4420656;32;20244;-61
2021/11/30 09:53:14;;;;;;;10.20;7.50;;;;;;;;;;4418668;32;20292;-60
2021/11/30 09:55:41;;;;;;;10.23;5.60;;;;;;;;;;4431765;32;20287;-59
2021/11/30 09:58:07;;;;;;;6.70;4.57;;;;;;;;;;4420099;32;20243;-60
2021/11/30 10:00:34;;;;;;;6.83;5.00;;;;;;;;;;4419337;32;20780;-61
2021/11/30 10:03:00;;;;;;;3.97;3.20;;;;;;;;;;4417885;32;20773;-59
2021/11/30 10:05:26;;;;;;;8.60;5.00;;;;;;;;;;4417631;32;20300;-61
2021/11/30 10:07:53;;;;;;;14.57;6.27;;;;;;;;;;4405529;32;20226;-60
2021/11/30 10:10:30;;;;;;;14.90;6.40;;;;;;;;;;4418026;32;20599;-60
2021/11/30 10:13:04;;;;;;;13.53;7.10;;;;;;;;;;4419231;32;20492;-60
2021/11/30 10:15:45;;;;;;;34.60;15.47;;;;;;;;;;4419501;32;20305;-60
2021/11/30 10:18:22;;;;;;;19.07;9.47;;;;;;;;;;4404111;32;20383;-61
2021/11/30 10:20:52;;;;;;;24.87;11.33;;;;;;;;;;4404803;32;20189;-59
2021/11/30 10:23:17;;;;;;;8.13;4.93;;;;;;;;;;4404285;32;20229;-60
2021/11/30 10:25:46;;;;;;;6.53;4.37;;;;;;;;;;4405015;32;20349;-60
2021/11/30 10:28:18;;;;;;;7.93;5.13;;;;;;;;;;4403283;32;20229;-59
2021/11/30 10:30:46;;;;;;;15.93;7.27;;;;;;;;;;4404696;32;20512;-60
2021/11/30 10:33:24;;;;;;;8.43;5.83;;;;;;;;;;4403928;32;20278;-59
2021/11/30 10:35:53;;;;;;;12.43;5.37;;;;;;;;;;4404521;32;20313;-59
2021/11/30 10:38:19;;;;;;;7.20;5.20;;;;;;;;;;4404272;32;20280;-61
2021/11/30 10:40:45;;;;;;;7.80;3.83;;;;;;;;;;4402431;32;20309;-60
2021/11/30 10:43:11;;;;;;;6.83;4.30;;;;;;;;;;4402345;32;20257;-60
2021/11/30 10:45:43;;;;;;;9.43;4.73;;;;;;;;;;4403926;32;20276;-59
2021/11/30 10:48:17;;;;;;;9.10;4.80;;;;;;;;;;4403577;32;20290;-60
2021/11/30 10:50:50;;;;;;;7.20;5.30;;;;;;;;;;4402784;32;20681;-61
2021/11/30 10:53:22;;;;;;;4.77;4.10;;;;;;;;;;4402679;32;20229;-59
2021/11/30 10:55:54;;;;;;;10.20;6.23;;;;;;;;;;4404406;32;20233;-60
2021/11/30 10:58:22;;;;;;;8.90;5.50;;;;;;;;;;4403232;32;20296;-61
2021/11/30 11:00:48;;;;;;;7.97;5.00;;;;;;;;;;4403670;32;20217;-59
2021/11/30 11:03:22;;;;;;;7.03;4.73;;;;;;;;;;4408550;32;20339;-59
2021/11/30 11:08:41;;;;;;;24.37;9.60;;;;;;;;;;4418340;32;20777;-60
2021/11/30 11:11:07;;;;;;;9.93;6.63;;;;;;;;;;4418422;32;20331;-61
2021/11/30 11:13:38;;;;;;;8.60;5.47;;;;;;;;;;4408712;32;20352;-60
2021/11/30 11:16:07;;;;;;;9.80;6.63;;;;;;;;;;4403433;32;20778;-60
2021/11/30 11:18:41;;;;;;;17.93;8.33;;;;;;;;;;4402095;32;20264;-60
2021/11/30 11:21:20;;;;;;;12.00;5.53;;;;;;;;;;4402240;32;20601;-61
2021/11/30 11:23:56;;;;;;;22.73;8.10;;;;;;;;;;4403322;32;20201;-58
2021/11/30 11:26:28;;;;;;;22.63;10.67;;;;;;;;;;4402662;32;20322;-62
2021/11/30 11:28:59;;;;;;;10.03;6.13;;;;;;;;;;4403179;32;20396;-59
2021/11/30 11:31:26;;;;;;;8.57;5.07;;;;;;;;;;4401714;32;20259;-59
2021/11/30 11:33:56;;;;;;;8.20;5.00;;;;;;;;;;4403198;32;20244;-60
2021/11/30 11:36:22;;;;;;;13.43;7.33;;;;;;;;;;4403006;32;20213;-60
2021/11/30 11:38:48;;;;;;;9.97;5.30;;;;;;;;;;4405212;32;20291;-60
2021/11/30 11:41:13;;;;;;;8.83;5.87;;;;;;;;;;4417934;32;20737;-60
2021/11/30 11:43:40;;;;;;;9.27;4.93;;;;;;;;;;4418030;32;20664;-60
2021/11/30 11:46:11;;;;;;;7.00;4.27;;;;;;;;;;4429556;32;20753;-60
2021/11/30 11:48:38;;;;;;;7.20;5.00;;;;;;;;;;4418245;32;20255;-60
2021/11/30 11:51:05;;;;;;;6.13;4.27;;;;;;;;;;4418016;32;20299;-60
2021/11/30 11:53:51;;;;;;;8.87;5.10;;;;;;;;;;4417694;32;20252;-60
2021/11/30 11:56:23;;;;;;;6.67;4.57;;;;;;;;;;4417867;32;20192;-60
2021/11/30 11:59:09;;;;;;;14.77;7.70;;;;;;;;;;4418430;32;20224;-60
2021/11/30 12:01:35;;;;;;;19.53;9.03;;;;;;;;;;4417563;32;20266;-61
2021/11/30 12:04:14;;;;;;;9.30;6.73;;;;;;;;;;4418203;32;20710;-61
2021/11/30 12:07:01;;;;;;;13.93;7.20;;;;;;;;;;4417701;32;20895;-60
2021/11/30 12:09:31;;;;;;;7.20;4.43;;;;;;;;;;4417868;32;20213;-60
2021/11/30 12:12:08;;;;;;;9.10;4.40;;;;;;;;;;4417942;32;20219;-59
2021/11/30 12:14:40;;;;;;;10.10;5.43;;;;;;;;;;4416061;32;20372;-59
2021/11/30 12:17:15;;;;;;;12.20;5.37;;;;;;;;;;4418021;32;20235;-59
2021/11/30 12:19:51;;;;;;;7.20;4.10;;;;;;;;;;4418190;32;20306;-59
2021/11/30 12:22:50;;;;;;;7.33;4.87;;;;;;;;;;4416879;32;20643;-60
2021/11/30 12:25:40;;;;;;;9.07;5.90;;;;;;;;;;4420059;32;20240;-62
2021/11/30 12:28:09;;;;;;;10.17;6.40;;;;;;;;;;4421311;32;20723;-61
2021/11/30 12:30:48;;;;;;;10.87;6.87;;;;;;;;;;4422688;32;20266;-59
2021/11/30 12:33:30;;;;;;;12.63;7.27;;;;;;;;;;4421382;32;20360;-61
2021/11/30 12:36:03;;;;;;;11.33;6.20;;;;;;;;;;4422819;32;20511;-62
2021/11/30 12:38:53;;;;;;;9.90;5.80;;;;;;;;;;4421374;32;20279;-60
2021/11/30 12:41:27;;;;;;;5.17;3.87;;;;;;;;;;4404397;32;20229;-59
2021/11/30 12:43:55;;;;;;;4.27;3.13;;;;;;;;;;4407351;32;20334;-59
2021/11/30 12:46:55;;;;;;;10.90;4.03;;;;;;;;;;4406934;32;20514;-59
2021/11/30 12:49:24;;;;;;;11.07;5.33;;;;;;;;;;4389165;32;20267;-60
2021/11/30 12:52:09;;;;;;;12.50;6.97;;;;;;;;;;4407270;32;20193;-60
2021/11/30 12:54:38;;;;;;;11.43;6.27;;;;;;;;;;4403871;32;20246;-60
2021/11/30 12:57:05;;;;;;;18.03;7.60;;;;;;;;;;4405952;32;20225;-60
2021/11/30 12:59:36;;;;;;;5.93;4.47;;;;;;;;;;4405880;32;20249;-61
2021/11/30 13:02:29;;;;;;;12.00;7.13;;;;;;;;;;4413379;32;20206;-61
2021/11/30 13:05:15;;;;;;;11.70;6.83;;;;;;;;;;4421412;32;20691;-61
2021/11/30 13:07:47;;;;;;;9.80;6.00;;;;;;;;;;4419219;32;20299;-60
2021/11/30 13:10:19;;;;;;;7.30;6.10;;;;;;;;;;4422403;32;20276;-59
2021/11/30 13:12:45;;;;;;;8.20;6.30;;;;;;;;;;4420785;32;20549;-60
2021/11/30 13:15:10;;;;;;;9.77;6.60;;;;;;;;;;4421121;32;20300;-59
2021/11/30 13:17:37;;;;;;;7.30;5.50;;;;;;;;;;4422042;32;20204;-59
2021/11/30 13:20:06;;;;;;;8.70;5.00;;;;;;;;;;4422641;32;20624;-60
2021/11/30 13:22:37;;;;;;;5.47;4.43;;;;;;;;;;4422362;32;20210;-59
2021/11/30 13:25:03;;;;;;;6.03;4.13;;;;;;;;;;4422551;32;20268;-58
2021/11/30 13:27:35;;;;;;;6.83;3.80;;;;;;;;;;4422150;32;20701;-59
2021/11/30 13:30:07;;;;;;;3.73;3.13;;;;;;;;;;4422515;32;20236;-59
2021/11/30 13:32:49;;;;;;;5.87;4.00;;;;;;;;;;4420823;32;20444;-60
2021/11/30 13:35:19;;;;;;;6.27;3.70;;;;;;;;;;4420790;32;20221;-61
2021/11/30 13:37:51;;;;;;;5.93;3.27;;;;;;;;;;4419274;32;20216;-60
2021/11/30 13:40:30;;;;;;;7.23;4.27;;;;;;;;;;4415945;32;20298;-59
2021/11/30 13:42:58;;;;;;;9.20;5.00;;;;;;;;;;4404743;32;20251;-59
2021/11/30 13:45:24;;;;;;;7.27;4.57;;;;;;;;;;4404432;32;20622;-59
2021/11/30 13:47:51;;;;;;;4.33;3.93;;;;;;;;;;4404328;32;20225;-61
2021/11/30 13:50:21;;;;;;;6.93;4.17;;;;;;;;;;4404540;32;20275;-59
2021/11/30 13:52:47;;;;;;;7.17;4.70;;;;;;;;;;4403427;32;20759;-60
2021/11/30 13:55:13;;;;;;;7.90;4.90;;;;;;;;;;4404431;32;20313;-59
2021/11/30 13:57:40;;;;;;;5.03;3.93;;;;;;;;;;4405803;32;20641;-60
2021/11/30 14:00:14;;;;;;;10.67;4.73;;;;;;;;;;4419737;32;20563;-60
2021/11/30 14:02:44;;;;;;;7.63;3.97;;;;;;;;;;4418525;32;20510;-59
2021/11/30 14:05:11;;;;;;;8.33;5.47;;;;;;;;;;4419600;32;20205;-60
2021/11/30 14:07:37;;;;;;;5.50;4.00;;;;;;;;;;4419246;32;20194;-60
2021/11/30 14:10:17;;;;;;;4.47;3.43;;;;;;;;;;4419474;32;20302;-60
2021/11/30 14:12:43;;;;;;;12.50;7.60;;;;;;;;;;4419248;32;20268;-61
2021/11/30 14:15:09;;;;;;;16.73;8.93;;;;;;;;;;4419638;32;20360;-61
2021/11/30 14:17:37;;;;;;;8.17;6.47;;;;;;;;;;4417908;32;20226;-60
2021/11/30 14:20:25;;;;;;;6.83;4.63;;;;;;;;;;4419326;32;20258;-60
2021/11/30 14:22:52;;;;;;;9.47;6.50;;;;;;;;;;4419172;32;20577;-60
2021/11/30 14:25:22;;;;;;;16.97;9.70;;;;;;;;;;4417735;32;20292;-61
2021/11/30 14:27:53;;;;;;;26.13;11.83;;;;;;;;;;4419308;32;20300;-60
2021/11/30 14:30:33;;;;;;;36.33;22.87;;;;;;;;;;4419046;32;20219;-61
2021/11/30 14:33:05;;;;;;;30.37;13.80;;;;;;;;;;4419210;32;20278;-59
2021/11/30 14:35:38;;;;;;;14.57;7.60;;;;;;;;;;4413941;32;20221;-60
2021/11/30 14:38:03;;;;;;;9.93;6.00;;;;;;;;;;4430403;32;20363;-59
2021/11/30 14:40:38;;;;;;;10.20;5.80;;;;;;;;;;4405066;32;20272;-60
2021/11/30 14:43:03;;;;;;;7.97;4.20;;;;;;;;;;4402671;32;20286;-59
2021/11/30 14:45:46;;;;;;;8.20;5.47;;;;;;;;;;4402372;32;20296;-59
2021/11/30 14:48:17;;;;;;;6.47;4.70;;;;;;;;;;4402282;32;20366;-61
2021/11/30 14:50:50;;;;;;;13.63;8.47;;;;;;;;;;4401529;32;20325;-60
2021/11/30 14:53:25;;;;;;;6.83;5.60;;;;;;;;;;4403120;32;20646;-59
2021/11/30 14:55:56;;;;;;;12.83;6.93;;;;;;;;;;4401998;32;20388;-60
2021/11/30 14:58:39;;;;;;;6.83;4.80;;;;;;;;;;4410352;32;20599;-60